Time;durP1;ratioP1;P1;durP2;ratioP2;P2;SDS_P1;SDS_P2;PMS_P1;PMS_P2;Temp;Humidity;BMP_temperature;BMP_pressure;BME280_temperature;BME280_humidity;BME280_pressure;Samples;Min_cycle;Max_cycle;Signal;HPM_P1;HPM_P2
2021/12/03 00:02:07;;;;;;;6.88;3.17;;;4.40;92.60;;;;;;5085088;28;20097;-81
2021/12/03 00:04:33;;;;;;;8.18;3.88;;;4.40;92.70;;;;;;5083063;28;20107;-81
2021/12/03 00:06:58;;;;;;;7.68;3.63;;;4.40;92.80;;;;;;5081405;28;20020;-81
2021/12/03 00:09:24;;;;;;;6.78;3.58;;;4.40;92.90;;;;;;5096169;28;20024;-81
2021/12/03 00:11:50;;;;;;;6.25;3.08;;;4.30;93.00;;;;;;5095394;28;20039;-81
2021/12/03 00:14:15;;;;;;;6.07;3.45;;;4.30;93.30;;;;;;5099630;28;20031;-81
2021/12/03 00:16:41;;;;;;;6.18;2.85;;;4.30;93.20;;;;;;5097576;28;20210;-81
2021/12/03 00:19:07;;;;;;;10.57;3.33;;;4.20;93.20;;;;;;5084618;28;20032;-81
2021/12/03 00:21:33;;;;;;;8.27;3.28;;;4.20;93.40;;;;;;5089603;28;20028;-81
2021/12/03 00:23:58;;;;;;;8.73;3.35;;;4.20;93.40;;;;;;5087315;28;20119;-82
2021/12/03 00:26:24;;;;;;;9.20;3.63;;;4.20;93.40;;;;;;5078052;28;20025;-82
2021/12/03 00:28:50;;;;;;;7.68;3.55;;;4.20;93.40;;;;;;5081053;28;20032;-81
2021/12/03 00:31:16;;;;;;;9.68;3.72;;;4.20;93.40;;;;;;5085364;28;20047;-81
2021/12/03 00:33:42;;;;;;;10.15;3.42;;;4.20;93.40;;;;;;5088707;28;20364;-82
2021/12/03 00:36:10;;;;;;;11.15;3.47;;;4.20;93.50;;;;;;5087858;28;20035;-82
2021/12/03 00:38:41;;;;;;;14.05;3.63;;;4.30;93.50;;;;;;5082099;28;20390;-81
2021/12/03 00:41:16;;;;;;;8.88;3.63;;;4.30;93.50;;;;;;5088904;28;20058;-82
2021/12/03 00:43:46;;;;;;;11.85;3.90;;;4.30;93.40;;;;;;5082617;28;20027;-82
2021/12/03 00:46:15;;;;;;;8.00;3.35;;;4.30;93.50;;;;;;5084056;28;20036;-80
2021/12/03 00:48:41;;;;;;;10.98;3.45;;;4.20;93.40;;;;;;5089850;28;20036;-80
2021/12/03 00:51:08;;;;;;;7.05;3.10;;;4.30;93.50;;;;;;5089823;28;20059;-80
2021/12/03 00:53:35;;;;;;;7.60;3.13;;;4.30;93.50;;;;;;5081752;28;20036;-82
2021/12/03 00:56:01;;;;;;;6.57;3.08;;;4.30;93.50;;;;;;5092009;28;20046;-83
2021/12/03 00:58:27;;;;;;;8.15;3.40;;;4.30;93.50;;;;;;5092731;28;20046;-82
2021/12/03 01:00:53;;;;;;;6.72;3.72;;;4.40;93.50;;;;;;5093542;28;20127;-82
2021/12/03 01:03:19;;;;;;;8.63;3.40;;;4.40;93.50;;;;;;5091942;28;20035;-82
2021/12/03 01:05:45;;;;;;;8.40;3.70;;;4.50;93.40;;;;;;5076453;28;20032;-81
2021/12/03 01:08:11;;;;;;;5.50;3.00;;;4.50;93.40;;;;;;5088060;28;20024;-81
2021/12/03 01:10:36;;;;;;;6.53;3.05;;;4.60;93.60;;;;;;5079039;28;20498;-77
2021/12/03 01:13:02;;;;;;;7.47;3.15;;;4.60;93.30;;;;;;5096585;28;20031;-78
2021/12/03 01:15:32;;;;;;;8.73;3.40;;;4.70;93.30;;;;;;5093756;28;20134;-79
2021/12/03 01:17:58;;;;;;;6.88;3.03;;;4.80;93.20;;;;;;5085068;28;20036;-80
2021/12/03 01:20:24;;;;;;;6.78;3.28;;;4.70;93.00;;;;;;5094194;28;21459;-79
2021/12/03 01:22:53;;;;;;;6.30;3.38;;;4.70;93.00;;;;;;5080234;28;20378;-79
2021/12/03 01:25:21;;;;;;;7.50;3.20;;;4.60;93.00;;;;;;5094613;28;20032;-79
2021/12/03 01:27:48;;;;;;;7.03;3.60;;;4.50;93.10;;;;;;5082425;28;20040;-80
2021/12/03 01:30:17;;;;;;;7.72;3.50;;;4.40;93.20;;;;;;5075443;28;20039;-79
2021/12/03 01:32:43;;;;;;;5.30;3.40;;;4.30;93.40;;;;;;5079487;28;20040;-80
2021/12/03 01:35:11;;;;;;;6.85;3.42;;;4.30;93.50;;;;;;5093407;28;20067;-80
2021/12/03 01:37:37;;;;;;;9.73;3.40;;;4.30;93.50;;;;;;5082536;28;20094;-81
2021/12/03 01:40:05;;;;;;;9.25;3.30;;;4.30;93.60;;;;;;5092408;28;20036;-81
2021/12/03 01:42:31;;;;;;;7.15;3.42;;;4.30;93.60;;;;;;5083360;28;20041;-81
2021/12/03 01:44:56;;;;;;;5.18;3.40;;;4.30;93.60;;;;;;5083143;28;20039;-80
2021/12/03 01:47:22;;;;;;;5.72;3.17;;;4.40;93.80;;;;;;5087278;28;20471;-79
2021/12/03 01:49:47;;;;;;;8.85;4.38;;;4.40;93.70;;;;;;5090045;28;20032;-80
2021/12/03 01:52:13;;;;;;;8.52;3.63;;;4.50;93.60;;;;;;5086869;28;20116;-80
2021/12/03 01:54:39;;;;;;;5.93;3.30;;;4.50;93.60;;;;;;5088994;28;20509;-80
2021/12/03 01:57:05;;;;;;;8.25;3.78;;;4.50;93.70;;;;;;5089413;28;20044;-80
2021/12/03 01:59:30;;;;;;;7.53;3.38;;;4.60;93.70;;;;;;5076030;28;20041;-80
2021/12/03 02:01:57;;;;;;;6.75;3.45;;;4.60;93.70;;;;;;5077511;28;20503;-78
2021/12/03 02:04:23;;;;;;;6.82;3.35;;;4.60;93.60;;;;;;5081400;28;20407;-79
2021/12/03 02:06:48;;;;;;;4.35;3.20;;;4.70;93.60;;;;;;5076607;28;20020;-78
2021/12/03 02:09:14;;;;;;;7.93;3.10;;;4.70;93.60;;;;;;5091644;28;20029;-80
2021/12/03 02:11:42;;;;;;;5.90;3.45;;;4.80;93.60;;;;;;5092378;28;20032;-79
2021/12/03 02:14:11;;;;;;;8.18;3.95;;;4.80;93.50;;;;;;5084514;28;20024;-79
2021/12/03 02:16:38;;;;;;;5.65;3.22;;;4.90;93.40;;;;;;5079175;28;20028;-81
2021/12/03 02:19:04;;;;;;;6.28;3.47;;;4.90;93.40;;;;;;5083026;28;20132;-81
2021/12/03 02:21:30;;;;;;;6.85;3.40;;;4.90;93.40;;;;;;5074807;28;20074;-81
2021/12/03 02:23:56;;;;;;;5.95;3.55;;;4.90;93.30;;;;;;5081559;28;20443;-81
2021/12/03 02:26:22;;;;;;;7.90;4.07;;;4.90;93.30;;;;;;5087603;28;20024;-81
2021/12/03 02:28:50;;;;;;;6.30;2.92;;;4.80;93.30;;;;;;5079161;28;20024;-82
2021/12/03 02:31:19;;;;;;;7.43;3.65;;;4.80;93.40;;;;;;5074483;28;20032;-81
2021/12/03 02:33:45;;;;;;;7.53;3.50;;;4.80;93.40;;;;;;5080368;28;20436;-81
2021/12/03 02:36:11;;;;;;;7.78;3.90;;;4.80;93.40;;;;;;5093705;28;20024;-82
2021/12/03 02:38:38;;;;;;;8.50;4.07;;;4.80;93.40;;;;;;5085581;28;20027;-82
2021/12/03 02:41:04;;;;;;;7.78;4.25;;;4.80;93.30;;;;;;5083516;28;20475;-82
2021/12/03 02:43:30;;;;;;;8.35;4.82;;;4.80;93.30;;;;;;5075597;28;20078;-82
2021/12/03 02:45:57;;;;;;;9.35;4.50;;;4.70;93.30;;;;;;5086681;28;20026;-82
2021/12/03 02:48:24;;;;;;;12.15;5.18;;;4.60;93.50;;;;;;5092798;28;20056;-82
2021/12/03 02:50:49;;;;;;;9.90;5.45;;;4.50;93.50;;;;;;5084461;28;20035;-82
2021/12/03 02:53:16;;;;;;;12.20;5.43;;;4.50;93.80;;;;;;5086928;28;20371;-82
2021/12/03 02:55:42;;;;;;;8.73;5.18;;;4.40;93.90;;;;;;5078531;28;20025;-82
2021/12/03 02:58:08;;;;;;;8.38;5.30;;;4.40;93.90;;;;;;5075902;28;20040;-81
2021/12/03 03:00:35;;;;;;;9.50;4.38;;;4.50;94.00;;;;;;5085519;28;20036;-81
2021/12/03 03:03:01;;;;;;;12.57;5.53;;;4.50;93.90;;;;;;5084435;28;20036;-82
2021/12/03 03:05:28;;;;;;;10.90;5.65;;;4.60;93.90;;;;;;5080356;28;20027;-81
2021/12/03 03:07:54;;;;;;;10.48;5.43;;;4.60;93.90;;;;;;5085712;28;20028;-80
2021/12/03 03:10:25;;;;;;;13.80;6.20;;;4.60;93.90;;;;;;5096387;28;20536;-81
2021/12/03 03:12:51;;;;;;;9.75;5.20;;;4.60;93.90;;;;;;5077335;28;20056;-81
2021/12/03 03:15:17;;;;;;;10.02;5.63;;;4.60;94.00;;;;;;5086852;28;20063;-81
2021/12/03 03:17:42;;;;;;;7.85;4.65;;;4.60;94.00;;;;;;5078360;28;20032;-82
2021/12/03 03:20:09;;;;;;;10.35;5.15;;;4.60;94.00;;;;;;5087775;28;20039;-83
2021/12/03 03:22:37;;;;;;;12.52;5.22;;;4.60;94.00;;;;;;5092663;28;20020;-82
2021/12/03 03:25:04;;;;;;;12.00;5.88;;;4.70;94.00;;;;;;5084509;28;20028;-81
2021/12/03 03:27:30;;;;;;;9.98;5.88;;;4.70;93.90;;;;;;5077618;28;20024;-81
2021/12/03 03:29:57;;;;;;;11.30;6.30;;;4.80;93.90;;;;;;5082398;28;20090;-83
2021/12/03 03:32:23;;;;;;;8.93;6.40;;;4.70;93.80;;;;;;5073365;28;20020;-82
2021/12/03 03:34:55;;;;;;;10.50;6.50;;;4.60;93.90;;;;;;5088629;28;20103;-82
2021/12/03 03:37:21;;;;;;;18.60;7.45;;;4.50;94.10;;;;;;5082261;28;20037;-83
2021/12/03 03:39:47;;;;;;;12.43;6.55;;;4.40;94.20;;;;;;5085203;28;20050;-82
2021/12/03 03:42:13;;;;;;;14.68;8.63;;;4.30;94.40;;;;;;5085423;28;20036;-80
2021/12/03 03:44:40;;;;;;;12.63;8.20;;;4.20;94.80;;;;;;5078107;28;20039;-81
2021/12/03 03:47:06;;;;;;;17.02;7.50;;;4.00;95.20;;;;;;5075830;28;20032;-81
2021/12/03 03:49:32;;;;;;;14.45;8.57;;;3.90;95.50;;;;;;5085898;28;20058;-82
2021/12/03 03:51:59;;;;;;;10.98;7.80;;;3.90;95.60;;;;;;5073441;28;20025;-83
2021/12/03 03:54:25;;;;;;;14.45;9.02;;;3.90;95.70;;;;;;5081963;28;20415;-83
2021/12/03 03:56:51;;;;;;;15.70;9.05;;;3.90;95.80;;;;;;5092527;28;20032;-81
2021/12/03 03:59:17;;;;;;;16.60;9.45;;;3.80;95.90;;;;;;5088313;28;20036;-82
2021/12/03 04:01:48;;;;;;;17.50;10.48;;;3.80;95.90;;;;;;5080015;28;20036;-80
2021/12/03 04:04:14;;;;;;;14.80;10.43;;;3.80;96.10;;;;;;5083350;28;20032;-82
2021/12/03 04:06:40;;;;;;;18.80;10.45;;;3.80;96.30;;;;;;5093872;28;20024;-81
2021/12/03 04:09:07;;;;;;;15.60;11.70;;;3.70;96.40;;;;;;5107680;28;20032;-83
2021/12/03 04:11:33;;;;;;;22.25;12.90;;;3.70;96.40;;;;;;5102480;28;20039;-83
2021/12/03 04:13:58;;;;;;;20.17;12.80;;;3.70;96.60;;;;;;5084356;28;20021;-84
2021/12/03 04:16:24;;;;;;;24.10;13.77;;;3.70;96.80;;;;;;5078830;28;20134;-83
2021/12/03 04:18:50;;;;;;;24.45;14.25;;;3.70;96.90;;;;;;5095611;28;20039;-83
2021/12/03 04:21:16;;;;;;;22.50;15.35;;;3.70;97.00;;;;;;5082961;28;20037;-84
2021/12/03 04:23:42;;;;;;;23.85;14.85;;;3.60;97.10;;;;;;5081525;28;20031;-83
2021/12/03 04:26:08;;;;;;;30.95;17.05;;;3.60;97.20;;;;;;5076478;28;20032;-84
2021/12/03 04:28:34;;;;;;;33.92;17.55;;;3.70;97.30;;;;;;5087558;28;20024;-84
2021/12/03 04:31:00;;;;;;;31.85;19.30;;;3.70;97.30;;;;;;5083068;28;20500;-82
2021/12/03 04:33:28;;;;;;;35.78;20.02;;;3.70;97.40;;;;;;5080406;28;20030;-82
2021/12/03 04:35:54;;;;;;;33.05;19.05;;;3.70;97.50;;;;;;5095302;28;20020;-84
2021/12/03 04:38:20;;;;;;;32.08;19.75;;;3.70;97.50;;;;;;5090697;28;20494;-81
2021/12/03 04:40:46;;;;;;;31.58;21.52;;;3.70;97.50;;;;;;5076205;28;20059;-80
2021/12/03 04:43:12;;;;;;;36.25;22.15;;;3.70;97.50;;;;;;5076840;28;20495;-81
2021/12/03 04:45:38;;;;;;;36.17;21.48;;;3.70;97.60;;;;;;5079817;28;20028;-82
2021/12/03 04:48:05;;;;;;;32.88;21.55;;;3.70;97.70;;;;;;5078581;28;20036;-82
2021/12/03 04:50:35;;;;;;;34.17;21.27;;;3.70;97.70;;;;;;5091396;28;20028;-82
2021/12/03 04:53:01;;;;;;;35.05;21.95;;;3.70;97.70;;;;;;5094670;28;20056;-82
2021/12/03 04:55:27;;;;;;;36.95;21.58;;;3.70;97.90;;;;;;5088917;28;20028;-83
2021/12/03 04:57:53;;;;;;;34.75;21.95;;;3.70;97.80;;;;;;5085163;28;20032;-81
2021/12/03 05:00:23;;;;;;;47.67;25.15;;;3.70;97.80;;;;;;5095730;28;20031;-81
2021/12/03 05:02:50;;;;;;;45.05;24.65;;;3.70;97.80;;;;;;5078171;28;20138;-82
2021/12/03 05:05:16;;;;;;;48.35;26.52;;;3.60;98.10;;;;;;5095967;28;20032;-82
2021/12/03 05:10:10;;;;;;;53.05;27.10;;;3.60;98.20;;;;;;5104147;28;20054;-83
2021/12/03 05:12:37;;;;;;;61.20;28.95;;;3.60;98.30;;;;;;5097911;28;20039;-82
2021/12/03 05:15:04;;;;;;;62.28;30.38;;;3.60;98.30;;;;;;5078477;28;20079;-83
2021/12/03 05:17:29;;;;;;;63.80;31.23;;;3.60;98.50;;;;;;5085349;28;20183;-82
2021/12/03 05:19:55;;;;;;;63.25;31.38;;;3.50;98.50;;;;;;5092815;28;20474;-81
2021/12/03 05:22:21;;;;;;;71.03;33.00;;;3.50;98.70;;;;;;5083125;28;20032;-81
2021/12/03 05:24:47;;;;;;;73.88;33.53;;;3.50;98.80;;;;;;5079389;28;20479;-81
2021/12/03 05:27:19;;;;;;;71.47;34.35;;;3.50;98.80;;;;;;5085777;28;20036;-81
2021/12/03 05:29:47;;;;;;;73.30;33.83;;;3.50;98.90;;;;;;5090075;28;20117;-81
2021/12/03 05:32:14;;;;;;;76.97;35.42;;;3.50;98.90;;;;;;5094788;28;20495;-81
2021/12/03 05:34:40;;;;;;;73.13;34.63;;;3.60;98.90;;;;;;5089711;28;20036;-82
2021/12/03 05:37:07;;;;;;;72.32;33.40;;;3.60;98.80;;;;;;5094539;28;20032;-82
2021/12/03 05:39:34;;;;;;;77.20;35.63;;;3.70;98.80;;;;;;5087521;28;20444;-83
2021/12/03 05:42:00;;;;;;;72.95;36.42;;;3.70;98.80;;;;;;5094388;28;20039;-81
2021/12/03 05:44:28;;;;;;;71.85;36.70;;;3.70;98.80;;;;;;5082082;28;20123;-81
2021/12/03 05:46:54;;;;;;;77.38;36.35;;;3.70;98.90;;;;;;5082891;28;20039;-84
2021/12/03 05:49:19;;;;;;;69.82;35.95;;;3.80;98.90;;;;;;5092713;28;20463;-84
2021/12/03 05:51:45;;;;;;;74.78;35.03;;;3.80;98.80;;;;;;5089751;28;20036;-83
2021/12/03 05:54:11;;;;;;;73.03;38.10;;;3.80;98.80;;;;;;5092736;28;20035;-84
2021/12/03 05:56:36;;;;;;;72.25;36.53;;;3.80;98.70;;;;;;5095244;28;20028;-84
2021/12/03 05:59:03;;;;;;;80.85;38.15;;;3.80;98.70;;;;;;5086140;28;20217;-84
2021/12/03 06:01:29;;;;;;;80.75;37.97;;;3.80;98.70;;;;;;5075139;28;20049;-84
2021/12/03 06:03:55;;;;;;;86.85;41.67;;;3.90;98.70;;;;;;5085429;28;20404;-82
2021/12/03 06:06:21;;;;;;;84.53;40.53;;;3.80;98.70;;;;;;5091336;28;20090;-84
2021/12/03 06:08:48;;;;;;;80.25;41.75;;;3.80;98.70;;;;;;5096402;28;20039;-85
2021/12/03 06:11:13;;;;;;;82.03;39.33;;;3.80;98.70;;;;;;5081007;28;20082;-86
2021/12/03 06:13:39;;;;;;;82.03;39.28;;;3.80;98.80;;;;;;5081062;28;20044;-84
2021/12/03 06:16:10;;;;;;;78.32;39.40;;;3.90;98.90;;;;;;5094384;28;20028;-83
2021/12/03 06:18:38;;;;;;;84.03;40.22;;;3.90;98.90;;;;;;5088895;28;20040;-82
2021/12/03 06:21:05;;;;;;;87.68;41.00;;;3.90;98.90;;;;;;5086254;28;20032;-82
2021/12/03 06:23:32;;;;;;;80.60;40.83;;;3.90;98.90;;;;;;5075619;28;20037;-86
2021/12/03 06:26:00;;;;;;;80.15;40.65;;;3.90;98.90;;;;;;5094429;28;20024;-82
2021/12/03 06:28:27;;;;;;;80.20;37.63;;;3.90;98.90;;;;;;5079804;28;20513;-81
2021/12/03 06:30:53;;;;;;;77.80;40.10;;;4.00;98.90;;;;;;5088651;28;20034;-79
2021/12/03 06:33:19;;;;;;;78.75;38.05;;;4.00;98.80;;;;;;5087554;28;20032;-79
2021/12/03 06:35:46;;;;;;;79.07;38.88;;;4.00;98.90;;;;;;5089307;28;20402;-79
2021/12/03 06:38:11;;;;;;;77.88;37.47;;;4.00;98.90;;;;;;5092329;28;20040;-79
2021/12/03 06:40:37;;;;;;;88.47;44.17;;;4.00;98.90;;;;;;5088400;28;20463;-79
2021/12/03 06:43:03;;;;;;;80.60;39.05;;;4.00;98.90;;;;;;5090947;28;20051;-79
2021/12/03 06:45:29;;;;;;;76.55;38.30;;;4.00;99.10;;;;;;5081879;28;20044;-79
2021/12/03 06:47:54;;;;;;;83.13;39.15;;;4.00;99.00;;;;;;5073840;28;20086;-80
2021/12/03 06:50:21;;;;;;;79.53;36.83;;;4.00;99.00;;;;;;5081541;28;20437;-79
2021/12/03 06:55:47;;;;;;;80.38;36.20;;;4.00;99.10;;;;;;5064029;28;20036;-79
2021/12/03 06:58:18;;;;;;;77.53;34.38;;;4.00;99.20;;;;;;5079611;28;20037;-83
2021/12/03 07:00:50;;;;;;;71.53;35.33;;;4.00;99.30;;;;;;5075760;28;20054;-87
2021/12/03 07:03:15;;;;;;;83.03;34.88;;;4.00;99.20;;;;;;5084866;28;20383;-82
2021/12/03 07:05:41;;;;;;;75.75;35.30;;;4.00;99.30;;;;;;5089610;28;20020;-81
2021/12/03 07:08:07;;;;;;;69.65;33.47;;;4.00;99.30;;;;;;5080232;28;20028;-82
2021/12/03 07:10:34;;;;;;;70.47;32.63;;;4.00;99.40;;;;;;5083323;28;20020;-84
2021/12/03 07:13:01;;;;;;;66.20;31.40;;;4.10;99.50;;;;;;5089172;28;20028;-83
2021/12/03 07:15:27;;;;;;;61.70;30.13;;;4.20;99.50;;;;;;5077036;28;20575;-80
2021/12/03 07:17:53;;;;;;;59.78;28.00;;;4.20;99.50;;;;;;5079185;28;20039;-78
2021/12/03 07:20:20;;;;;;;57.35;27.08;;;4.30;99.40;;;;;;5073984;28;20036;-89
2021/12/03 07:22:46;;;;;;;57.00;25.98;;;4.30;99.20;;;;;;5073602;28;20045;-82
2021/12/03 07:25:13;;;;;;;54.92;25.67;;;4.30;99.10;;;;;;5080028;28;20032;-86
2021/12/03 07:27:40;;;;;;;49.58;25.10;;;4.30;99.00;;;;;;5083142;28;20039;-83
2021/12/03 07:30:07;;;;;;;48.38;23.50;;;4.20;99.00;;;;;;5074213;28;20503;-83
2021/12/03 07:32:33;;;;;;;55.03;21.95;;;4.30;99.00;;;;;;5076767;28;20540;-87
2021/12/03 07:34:59;;;;;;;45.67;20.38;;;4.30;99.00;;;;;;5073294;28;20360;-89
2021/12/03 07:37:25;;;;;;;47.75;20.63;;;4.40;98.90;;;;;;5078192;28;20047;-89
2021/12/03 07:39:51;;;;;;;42.17;19.77;;;4.40;98.70;;;;;;5090651;28;20020;-88
2021/12/03 07:42:17;;;;;;;44.55;18.27;;;4.40;98.80;;;;;;5084527;28;20054;-82
2021/12/03 07:44:43;;;;;;;40.75;15.48;;;4.40;98.70;;;;;;5087259;28;20520;-90
2021/12/03 07:47:09;;;;;;;39.30;15.60;;;4.50;98.40;;;;;;5093632;28;20032;-88
2021/12/03 07:49:35;;;;;;;33.22;14.32;;;4.50;98.20;;;;;;5081556;28;20085;-85
2021/12/03 07:52:01;;;;;;;29.38;12.73;;;4.50;98.00;;;;;;5091808;28;20051;-81
2021/12/03 07:54:27;;;;;;;32.45;12.90;;;4.50;97.70;;;;;;5079064;28;20028;-85
2021/12/03 07:56:53;;;;;;;28.98;11.52;;;4.50;97.50;;;;;;5085382;28;20390;-84
2021/12/03 07:59:18;;;;;;;29.73;11.57;;;4.40;97.50;;;;;;5083883;28;20042;-83
2021/12/03 08:01:45;;;;;;;31.90;12.10;;;4.40;97.70;;;;;;5086300;28;20134;-86
2021/12/03 08:04:12;;;;;;;26.65;10.15;;;4.40;97.30;;;;;;5086480;28;20043;-89
2021/12/03 08:06:40;;;;;;;35.92;10.60;;;4.40;97.10;;;;;;5101899;28;20049;-85
2021/12/03 08:09:06;;;;;;;29.08;10.23;;;4.40;96.70;;;;;;5100742;28;20032;-85
2021/12/03 08:11:33;;;;;;;24.08;8.75;;;4.40;96.70;;;;;;5097252;28;20089;-82
2021/12/03 08:13:59;;;;;;;23.58;7.65;;;4.40;96.80;;;;;;5097245;28;20036;-84
2021/12/03 08:16:25;;;;;;;21.77;6.95;;;4.40;96.40;;;;;;5097025;28;20042;-87
2021/12/03 08:18:50;;;;;;;25.55;7.22;;;4.40;96.00;;;;;;5091032;28;20041;-79
2021/12/03 08:21:16;;;;;;;20.50;6.45;;;4.40;96.00;;;;;;5065341;28;20047;-81
2021/12/03 08:23:41;;;;;;;23.52;6.88;;;4.40;95.90;;;;;;5076499;28;20040;-79
2021/12/03 08:26:07;;;;;;;24.73;6.55;;;4.50;95.80;;;;;;5076094;28;20040;-81
2021/12/03 08:28:34;;;;;;;22.23;5.95;;;4.50;95.90;;;;;;5076354;28;20029;-80
2021/12/03 08:31:00;;;;;;;17.98;5.50;;;4.50;95.50;;;;;;5075928;28;20513;-79
2021/12/03 08:33:26;;;;;;;21.55;5.72;;;4.50;95.40;;;;;;5076088;28;20025;-81
2021/12/03 08:35:52;;;;;;;20.50;5.85;;;4.50;95.40;;;;;;5076427;28;20067;-81
2021/12/03 08:38:18;;;;;;;15.65;5.40;;;4.50;95.50;;;;;;5076067;28;20064;-81
2021/12/03 08:40:44;;;;;;;17.20;5.43;;;4.60;96.80;;;;;;5076862;28;20031;-92
2021/12/03 08:43:10;;;;;;;16.70;5.07;;;4.70;96.10;;;;;;5076860;28;20058;-78
2021/12/03 08:45:38;;;;;;;16.45;4.50;;;4.70;95.60;;;;;;5075760;28;20364;-81
2021/12/03 08:48:05;;;;;;;16.67;5.18;;;4.80;95.50;;;;;;5076198;28;20036;-80
2021/12/03 08:50:37;;;;;;;17.83;5.30;;;4.70;95.20;;;;;;5075871;28;20487;-80
2021/12/03 08:55:49;;;;;;;19.48;5.25;;;4.60;94.80;;;;;;5075859;28;20031;-80
2021/12/03 08:58:16;;;;;;;17.92;4.53;;;4.60;94.50;;;;;;5075979;28;20036;-85
2021/12/03 09:00:43;;;;;;;21.73;5.25;;;4.50;94.80;;;;;;5076173;28;20548;-84
2021/12/03 09:03:09;;;;;;;15.90;5.30;;;4.50;94.70;;;;;;5075609;28;20036;-78
2021/12/03 09:05:37;;;;;;;21.92;4.70;;;4.60;94.90;;;;;;5079700;28;20478;-79
2021/12/03 09:08:03;;;;;;;13.20;3.78;;;4.60;94.70;;;;;;5076492;28;20028;-78
2021/12/03 09:10:29;;;;;;;20.83;4.70;;;4.60;95.00;;;;;;5075833;28;20024;-79
2021/12/03 09:12:54;;;;;;;23.15;4.90;;;4.60;94.70;;;;;;5075269;28;20028;-78
2021/12/03 09:15:31;;;;;;;20.83;5.32;;;4.70;94.70;;;;;;5075288;28;20023;-78
2021/12/03 09:18:40;;;;;;;18.10;4.50;;;4.70;94.80;;;;;;5075297;28;20028;-79
2021/12/03 09:20:54;;;;;;;18.60;5.13;;;4.60;94.50;;;;;;5064370;28;20044;-79
2021/12/03 09:23:32;;;;;;;16.95;4.53;;;4.60;94.50;;;;;;5075312;28;20112;-78
2021/12/03 09:26:10;;;;;;;13.15;4.70;;;4.60;94.50;;;;;;5075442;28;20021;-79
2021/12/03 09:28:38;;;;;;;15.73;3.80;;;4.60;94.80;;;;;;5075574;28;20396;-78
2021/12/03 09:31:05;;;;;;;16.77;4.53;;;4.60;94.80;;;;;;5076349;28;20024;-78
2021/12/03 09:33:33;;;;;;;22.40;4.90;;;4.60;94.80;;;;;;5076219;28;20427;-79
2021/12/03 09:39:23;;;;;;;16.98;4.80;;;4.60;94.90;;;;;;5075886;28;20088;-78
2021/12/03 09:41:52;;;;;;;18.95;4.70;;;4.70;94.80;;;;;;5077842;28;20048;-79
2021/12/03 09:44:19;;;;;;;15.55;4.25;;;4.70;95.20;;;;;;5084536;28;20049;-78
2021/12/03 09:46:50;;;;;;;19.05;4.60;;;4.70;95.10;;;;;;5078087;28;20036;-79
2021/12/03 09:49:26;;;;;;;19.48;5.40;;;4.70;95.10;;;;;;5081430;28;20031;-79
2021/12/03 09:56:47;;;;;;;21.23;5.38;;;4.80;95.20;;;;;;5089428;28;20092;-78
2021/12/03 09:59:41;;;;;;;22.85;6.50;;;4.80;95.30;;;;;;5076740;28;20086;-78
2021/12/03 10:02:21;;;;;;;18.23;3.80;;;4.80;95.00;;;;;;5072289;28;20049;-78
2021/12/03 10:13:26;;;;;;;13.90;3.85;;;4.70;94.90;;;;;;5075302;28;20104;-79
2021/12/03 10:19:02;;;;;;;15.43;2.65;;;4.70;94.50;;;;;;5079659;28;20036;-79
2021/12/03 10:43:15;;;;;;;15.93;3.22;;;4.60;94.80;;;;;;5077905;28;20479;-79
2021/12/03 10:46:02;;;;;;;14.13;3.55;;;4.60;95.10;;;;;;5069982;28;20066;-79
2021/12/03 10:54:06;;;;;;;16.95;3.50;;;4.70;95.60;;;;;;5072220;28;20125;-78
2021/12/03 11:59:05;;;;;;;17.48;4.18;;;4.90;97.00;;;;;;5073808;28;20049;-78
2021/12/03 13:08:39;;;;;;;15.98;3.72;;;5.50;94.60;;;;;;5087694;28;20090;-84
2021/12/03 14:39:39;;;;;;;5.88;2.13;;;5.40;96.50;;;;;;5082786;28;20051;-79
2021/12/03 14:44:57;;;;;;;10.73;2.55;;;5.30;97.10;;;;;;5084185;28;20120;-79
2021/12/03 14:52:49;;;;;;;8.38;2.70;;;5.20;97.80;;;;;;5073470;28;20025;-79
2021/12/03 14:55:30;;;;;;;6.93;2.53;;;5.20;98.00;;;;;;5081082;28;20117;-78
2021/12/03 14:58:03;;;;;;;5.80;2.92;;;5.20;98.50;;;;;;5080373;28;20589;-79
2021/12/03 15:01:19;;;;;;;6.60;2.65;;;5.20;98.30;;;;;;5078531;28;20042;-80
2021/12/03 15:19:05;;;;;;;8.25;3.08;;;5.30;99.10;;;;;;5091391;28;20084;-78
2021/12/03 15:24:41;;;;;;;5.43;2.75;;;5.20;99.20;;;;;;5087203;28;20069;-78
2021/12/03 15:54:43;;;;;;;6.65;3.38;;;5.10;99.90;;;;;;5090404;28;20043;-77
2021/12/03 16:08:12;;;;;;;6.60;3.80;;;5.00;99.90;;;;;;5069860;28;20456;-82
2021/12/03 16:10:51;;;;;;;12.98;4.45;;;5.00;99.90;;;;;;5059315;28;20024;-84
2021/12/03 16:48:39;;;;;;;8.60;5.05;;;5.10;99.90;;;;;;5056606;28;20377;-79
2021/12/03 16:53:34;;;;;;;9.57;6.05;;;5.10;99.90;;;;;;5058575;28;20062;-78
2021/12/03 16:56:08;;;;;;;9.07;5.57;;;5.10;99.90;;;;;;5059724;28;20032;-78
2021/12/03 16:58:35;;;;;;;6.40;5.22;;;5.10;99.90;;;;;;5057693;28;20387;-77
2021/12/03 17:01:28;;;;;;;8.85;5.72;;;5.10;99.90;;;;;;5060303;28;20036;-80
2021/12/03 17:48:57;;;;;;;6.03;5.13;;;5.30;99.90;;;;;;5076890;28;20048;-83
2021/12/03 17:56:53;;;;;;;5.05;4.60;;;5.40;99.90;;;;;;5078400;28;20039;-84
2021/12/03 17:59:24;;;;;;;5.88;5.22;;;5.40;99.90;;;;;;5085032;28;20040;-85
2021/12/03 18:07:50;;;;;;;6.70;4.80;;;5.50;99.90;;;;;;5077027;28;20374;-83
2021/12/03 18:18:36;;;;;;;4.20;3.80;;;5.40;99.90;;;;;;5082919;28;20036;-82
2021/12/03 18:56:23;;;;;;;6.15;4.10;;;5.50;99.90;;;;;;5084348;28;20024;-86
2021/12/03 18:58:56;;;;;;;4.70;4.30;;;5.50;99.90;;;;;;5080038;28;20465;-81
2021/12/03 19:01:27;;;;;;;4.60;4.20;;;5.50;99.90;;;;;;5083451;28;20493;-82
2021/12/03 19:06:56;;;;;;;4.85;4.45;;;5.50;99.90;;;;;;5084747;28;20036;-84
2021/12/03 19:11:56;;;;;;;4.97;4.50;;;5.50;99.90;;;;;;5085311;28;20036;-82
2021/12/03 19:14:23;;;;;;;5.65;5.22;;;5.50;99.90;;;;;;5078018;28;20066;-84
2021/12/03 19:16:50;;;;;;;6.82;6.13;;;5.50;99.90;;;;;;5089362;28;20053;-81
2021/12/03 19:19:16;;;;;;;6.28;5.68;;;5.60;99.90;;;;;;5084592;28;20513;-80
2021/12/03 19:21:44;;;;;;;6.85;6.28;;;5.60;99.90;;;;;;5072866;28;20043;-80
2021/12/03 19:24:13;;;;;;;7.20;6.50;;;5.60;99.90;;;;;;5085411;28;20028;-81
2021/12/03 19:26:43;;;;;;;7.45;6.70;;;5.60;99.90;;;;;;5088999;28;20024;-81
2021/12/03 19:29:11;;;;;;;7.45;6.75;;;5.70;99.90;;;;;;5084004;28;20024;-81
2021/12/03 19:31:38;;;;;;;7.00;6.40;;;5.70;99.90;;;;;;5087815;28;20035;-84
2021/12/03 19:34:04;;;;;;;7.22;5.72;;;5.70;99.90;;;;;;5089304;28;20036;-83
2021/12/03 19:36:32;;;;;;;6.72;6.15;;;5.70;99.90;;;;;;5100987;28;20107;-80
2021/12/03 19:38:59;;;;;;;7.53;6.93;;;5.70;99.90;;;;;;5103455;28;20055;-83
2021/12/03 19:44:15;;;;;;;6.47;5.85;;;5.70;99.90;;;;;;5085385;28;20039;-80
2021/12/03 19:46:47;;;;;;;8.35;6.78;;;5.70;99.90;;;;;;5080955;28;20020;-80
2021/12/03 19:49:21;;;;;;;7.32;6.72;;;5.70;99.90;;;;;;5091305;28;20069;-85
2021/12/03 19:51:52;;;;;;;7.95;7.15;;;5.70;99.90;;;;;;5087232;28;20060;-85
2021/12/03 19:54:20;;;;;;;8.75;7.85;;;5.60;99.90;;;;;;5089783;28;20433;-85
2021/12/03 19:56:46;;;;;;;8.20;7.38;;;5.70;99.90;;;;;;5083809;28;20027;-85
2021/12/03 19:59:13;;;;;;;7.30;6.70;;;5.70;99.90;;;;;;5078430;28;20044;-85
2021/12/03 20:01:39;;;;;;;7.75;7.10;;;5.70;99.90;;;;;;5089329;28;20041;-85
2021/12/03 20:04:07;;;;;;;7.57;6.97;;;5.70;99.90;;;;;;5083257;28;20081;-85
2021/12/03 20:06:34;;;;;;;8.30;7.50;;;5.80;99.90;;;;;;5085473;28;20494;-85
2021/12/03 20:09:02;;;;;;;8.50;7.80;;;5.70;99.90;;;;;;5084611;28;20028;-84
2021/12/03 20:11:38;;;;;;;9.65;6.63;;;5.80;99.90;;;;;;5089710;28;20033;-85
2021/12/03 20:14:06;;;;;;;6.55;5.95;;;5.80;99.90;;;;;;5078850;28;20036;-80
2021/12/03 20:16:47;;;;;;;7.45;6.63;;;5.80;99.90;;;;;;5093995;28;20041;-80
2021/12/03 20:19:29;;;;;;;7.03;6.43;;;5.70;99.90;;;;;;5087014;28;20041;-80
2021/12/03 20:22:02;;;;;;;6.78;6.18;;;5.70;99.90;;;;;;5089074;28;20028;-80
2021/12/03 20:26:59;;;;;;;7.70;7.00;;;5.70;99.90;;;;;;5093047;28;20103;-78
2021/12/03 20:32:14;;;;;;;9.10;8.30;;;5.70;99.90;;;;;;5088550;28;20065;-82
2021/12/03 20:37:15;;;;;;;9.15;8.25;;;5.70;99.90;;;;;;5102040;28;20510;-82
2021/12/03 20:39:41;;;;;;;8.02;7.32;;;5.70;99.90;;;;;;5083000;28;20036;-81
2021/12/03 20:42:13;;;;;;;8.73;7.47;;;5.70;99.90;;;;;;5075675;28;20052;-81
2021/12/03 20:45:00;;;;;;;8.10;7.38;;;5.70;99.90;;;;;;5092549;28;20031;-81
2021/12/03 20:47:48;;;;;;;7.97;7.18;;;5.70;99.90;;;;;;5085844;28;20155;-82
2021/12/03 21:09:10;;;;;;;10.60;9.50;;;5.80;99.90;;;;;;5083303;28;20086;-77
2021/12/03 21:11:42;;;;;;;10.63;9.52;;;5.80;99.90;;;;;;5087825;28;20040;-77
2021/12/03 21:14:14;;;;;;;10.48;9.57;;;5.80;99.90;;;;;;5073104;28;20044;-78
2021/12/03 21:17:06;;;;;;;9.93;9.07;;;5.90;99.90;;;;;;5085838;28;20031;-79
2021/12/03 21:19:38;;;;;;;11.13;9.18;;;5.90;99.90;;;;;;5076464;28;20080;-78
2021/12/03 21:22:10;;;;;;;13.15;10.18;;;5.90;99.90;;;;;;5076570;28;20032;-78
2021/12/03 21:24:39;;;;;;;10.27;9.32;;;5.90;99.90;;;;;;5076689;28;20081;-79